createdAt,value
2019-03-03T00:01:34.649Z,15.48
2019-03-03T00:04:08.480Z,13.55
2019-03-03T00:06:40.113Z,23.27
2019-03-03T00:09:11.462Z,20.52
2019-03-03T00:11:47.641Z,15.50
2019-03-03T00:14:20.200Z,12.78
2019-03-03T00:16:53.292Z,15.50
2019-03-03T00:19:27.823Z,9.68
2019-03-03T00:21:58.970Z,7.15
2019-03-03T00:24:31.036Z,11.30
2019-03-03T00:27:05.360Z,12.13
2019-03-03T00:29:37.101Z,10.58
2019-03-03T00:32:09.964Z,13.00
2019-03-03T00:34:41.514Z,13.00
2019-03-03T00:37:17.958Z,13.32
2019-03-03T00:39:51.210Z,12.05
2019-03-03T00:45:03.842Z,9.83
2019-03-03T00:47:48.879Z,8.53
2019-03-03T00:50:21.858Z,7.35
2019-03-03T00:53:06.668Z,8.57
2019-03-03T00:55:39.666Z,6.67
2019-03-03T00:58:12.562Z,9.27
2019-03-03T01:00:45.742Z,7.22
2019-03-03T01:03:28.395Z,9.20
2019-03-03T01:06:12.358Z,6.85
2019-03-03T01:08:45.275Z,9.03
2019-03-03T01:11:36.436Z,7.90
2019-03-03T01:14:12.041Z,12.18
2019-03-03T01:16:58.441Z,9.18
2019-03-03T01:19:31.549Z,10.60
2019-03-03T01:22:20.904Z,12.98
2019-03-03T01:24:58.610Z,12.05
2019-03-03T01:27:29.852Z,22.05
2019-03-03T01:30:01.102Z,31.95
2019-03-03T01:32:32.364Z,133.55
2019-03-03T01:35:06.511Z,71.70
2019-03-03T01:40:12.779Z,14.73
2019-03-03T01:42:43.995Z,15.80
2019-03-03T01:45:16.366Z,11.85
2019-03-03T01:47:47.616Z,12.05
2019-03-03T01:50:18.912Z,8.43
2019-03-03T01:52:51.153Z,8.13
2019-03-03T01:55:22.583Z,8.85
2019-03-03T01:57:54.081Z,10.10
2019-03-03T02:00:28.973Z,9.03
2019-03-03T02:03:05.349Z,8.45
2019-03-03T02:05:38.945Z,15.80
2019-03-03T02:08:10.594Z,52.75
2019-03-03T02:10:41.865Z,96.70
2019-03-03T02:13:13.443Z,46.37
2019-03-03T02:15:44.856Z,30.52
2019-03-03T02:18:16.038Z,56.77
2019-03-03T02:20:47.456Z,42.15
2019-03-03T02:23:20.191Z,30.63
2019-03-03T02:25:51.887Z,28.42
2019-03-03T02:28:23.664Z,27.65
2019-03-03T02:30:55.194Z,29.32
2019-03-03T02:33:26.566Z,22.87
2019-03-03T02:35:58.221Z,25.35
2019-03-03T02:38:29.602Z,15.43
2019-03-03T02:41:00.834Z,7.05
2019-03-03T02:43:41.850Z,10.20
2019-03-03T02:46:21.125Z,14.90
2019-03-03T02:48:52.461Z,11.50
2019-03-03T02:51:23.934Z,8.70
2019-03-03T02:53:55.146Z,12.60
2019-03-03T02:56:26.531Z,11.15
2019-03-03T02:58:58.367Z,11.00
2019-03-03T03:01:33.940Z,10.25
2019-03-03T03:04:05.394Z,9.90
2019-03-03T03:06:41.186Z,11.35
2019-03-03T03:09:14.359Z,8.18
2019-03-03T03:11:49.800Z,8.75
2019-03-03T03:14:22.840Z,9.10
2019-03-03T03:16:55.840Z,8.38
2019-03-03T03:19:32.003Z,22.02
2019-03-03T03:22:05.089Z,15.10
2019-03-03T03:24:38.359Z,28.07
2019-03-03T03:27:17.426Z,43.73
2019-03-03T03:30:08.381Z,63.87
2019-03-03T03:32:41.640Z,23.47
2019-03-03T03:35:27.820Z,15.38
2019-03-03T03:38:17.143Z,14.25
2019-03-03T03:41:05.802Z,18.62
2019-03-03T03:43:46.727Z,19.00
2019-03-03T03:46:29.653Z,11.75
2019-03-03T03:49:06.908Z,16.42
2019-03-03T03:51:39.817Z,20.97
2019-03-03T03:54:14.164Z,20.85
2019-03-03T03:56:59.517Z,20.27
2019-03-03T03:59:36.762Z,16.50
2019-03-03T04:02:09.910Z,16.57
2019-03-03T04:04:45.957Z,18.17
2019-03-03T04:07:21.701Z,22.87
2019-03-03T04:10:00.586Z,22.25
2019-03-03T04:12:34.953Z,18.65
2019-03-03T04:15:10.398Z,18.87
2019-03-03T04:17:52.710Z,21.55
2019-03-03T04:20:25.815Z,20.17
2019-03-03T04:23:01.866Z,17.42
2019-03-03T04:25:34.741Z,21.17
2019-03-03T04:28:22.850Z,28.45
2019-03-03T04:31:01.912Z,25.55
2019-03-03T04:33:37.676Z,26.07
2019-03-03T04:36:25.603Z,23.25
2019-03-03T04:39:10.387Z,23.32
2019-03-03T04:41:46.433Z,22.10
2019-03-03T04:44:28.479Z,30.43
2019-03-03T04:47:07.460Z,24.37
2019-03-03T04:49:42.734Z,26.30
2019-03-03T04:52:22.454Z,28.02
2019-03-03T04:55:01.413Z,23.20
2019-03-03T04:57:34.665Z,21.50
2019-03-03T05:00:10.827Z,32.67
2019-03-03T05:03:00.210Z,27.22
2019-03-03T05:05:45.385Z,33.73
2019-03-03T05:08:21.847Z,20.97
2019-03-03T05:10:54.835Z,23.35
2019-03-03T05:13:30.437Z,24.77
2019-03-03T05:16:20.997Z,18.50
2019-03-03T05:18:56.908Z,20.10
2019-03-03T05:21:29.518Z,22.15
2019-03-03T05:24:01.788Z,25.85
2019-03-03T05:26:33.038Z,23.15
2019-03-03T05:29:04.587Z,18.67
2019-03-03T05:31:35.742Z,21.80
2019-03-03T05:34:07.194Z,16.95
2019-03-03T05:36:38.425Z,19.27
2019-03-03T05:39:10.004Z,17.45
2019-03-03T05:41:41.588Z,21.57
2019-03-03T05:44:13.091Z,25.50
2019-03-03T05:46:44.647Z,22.37
2019-03-03T05:49:15.864Z,19.82
2019-03-03T05:51:48.381Z,23.25
2019-03-03T05:54:20.007Z,23.40
2019-03-03T05:56:51.488Z,19.90
2019-03-03T05:59:23.042Z,25.27
2019-03-03T06:01:54.201Z,20.43
2019-03-03T06:04:25.844Z,20.88
2019-03-03T06:06:57.313Z,28.85
2019-03-03T06:09:29.356Z,27.77
2019-03-03T06:12:00.960Z,29.18
2019-03-03T06:14:35.227Z,35.68
2019-03-03T06:19:43.051Z,38.25
2019-03-03T06:22:18.193Z,39.80
2019-03-03T06:24:50.626Z,41.20
2019-03-03T06:27:22.168Z,40.00
2019-03-03T06:29:53.670Z,46.25
2019-03-03T06:32:27.289Z,52.55
2019-03-03T06:37:29.157Z,26.90
2019-03-03T06:40:00.612Z,42.55
2019-03-03T06:42:33.031Z,34.83
2019-03-03T06:45:11.126Z,39.50
2019-03-03T06:47:42.220Z,36.70
2019-03-03T06:50:16.150Z,30.52
2019-03-03T06:52:48.780Z,34.88
2019-03-03T06:55:20.217Z,34.20
2019-03-03T06:57:52.135Z,27.48
2019-03-03T07:00:30.856Z,21.75
2019-03-03T07:03:02.291Z,29.30
2019-03-03T07:05:35.321Z,30.75
2019-03-03T07:08:09.217Z,27.70
2019-03-03T07:10:41.171Z,21.10
2019-03-03T07:13:16.197Z,21.33
2019-03-03T07:15:50.534Z,21.90
2019-03-03T07:18:22.183Z,21.03
2019-03-03T07:20:54.646Z,24.43
2019-03-03T07:23:34.221Z,29.18
2019-03-03T07:26:06.225Z,30.68
2019-03-03T07:28:43.384Z,32.17
2019-03-03T07:31:20.702Z,29.20
2019-03-03T07:33:54.304Z,25.05
2019-03-03T07:36:26.310Z,33.23
2019-03-03T07:39:00.937Z,38.53
2019-03-03T07:41:34.120Z,36.15
2019-03-03T07:44:08.543Z,31.97
2019-03-03T07:46:44.149Z,21.73
2019-03-03T07:51:57.464Z,22.62
2019-03-03T07:54:31.660Z,18.90
2019-03-03T07:57:04.648Z,14.45
2019-03-03T07:59:36.320Z,12.05
2019-03-03T08:02:07.777Z,20.60
2019-03-03T08:04:39.351Z,18.82
2019-03-03T08:07:12.200Z,15.30
2019-03-03T08:09:43.954Z,15.75
2019-03-03T08:12:20.115Z,13.18
2019-03-03T08:14:52.199Z,17.20
2019-03-03T08:17:23.325Z,20.75
2019-03-03T08:19:54.779Z,22.07
2019-03-03T08:22:26.220Z,18.35
2019-03-03T08:24:57.549Z,23.18
2019-03-03T08:27:28.826Z,29.82
2019-03-03T08:30:00.479Z,20.08
2019-03-03T08:32:32.145Z,22.25
2019-03-03T08:35:03.753Z,29.63
2019-03-03T08:37:34.947Z,27.58
2019-03-03T08:40:09.412Z,29.48
2019-03-03T08:42:45.119Z,29.15
2019-03-03T08:45:26.580Z,33.55
2019-03-03T08:48:01.229Z,27.32
2019-03-03T08:50:34.188Z,26.75
2019-03-03T08:53:17.371Z,29.07
2019-03-03T08:55:54.040Z,31.77
2019-03-03T08:58:28.020Z,29.65
2019-03-03T09:01:04.090Z,29.20
2019-03-03T09:03:39.949Z,33.13
2019-03-03T09:06:15.505Z,27.30
2019-03-03T09:08:51.197Z,19.57
2019-03-03T09:14:17.114Z,18.62
2019-03-03T09:17:06.317Z,23.30
2019-03-03T09:19:55.652Z,15.15
2019-03-03T09:22:31.386Z,13.98
2019-03-03T09:25:27.145Z,18.87
2019-03-03T09:28:02.760Z,9.40
2019-03-03T09:30:52.433Z,20.68
2019-03-03T09:33:44.649Z,13.13
2019-03-03T09:36:19.439Z,13.05
2019-03-03T09:39:01.035Z,8.63
2019-03-03T09:41:52.573Z,15.30
2019-03-03T09:44:28.022Z,8.88
2019-03-03T09:47:03.659Z,7.65
2019-03-03T09:49:55.532Z,11.33
2019-03-03T09:52:28.530Z,12.33
2019-03-03T09:55:04.595Z,7.63
2019-03-03T09:57:48.555Z,7.40
2019-03-03T10:00:22.432Z,11.22
2019-03-03T10:02:59.118Z,14.90
2019-03-03T10:05:44.725Z,16.07
2019-03-03T10:08:17.950Z,15.38
2019-03-03T10:10:55.226Z,9.93
2019-03-03T10:13:37.550Z,11.80
2019-03-03T10:16:14.227Z,12.63
2019-03-03T10:19:07.323Z,10.63
2019-03-03T10:21:41.607Z,7.53
2019-03-03T10:24:26.347Z,5.78
2019-03-03T10:27:08.000Z,10.60
2019-03-03T10:29:47.745Z,9.03
2019-03-03T10:32:40.393Z,14.73
2019-03-03T10:35:13.699Z,17.55
2019-03-03T10:37:47.510Z,12.28
2019-03-03T10:40:22.160Z,16.12
2019-03-03T10:45:56.739Z,17.35
2019-03-03T10:48:31.775Z,31.25
2019-03-03T10:51:13.198Z,32.63
2019-03-03T10:53:56.800Z,16.85
2019-03-03T10:56:43.033Z,28.30
2019-03-03T10:59:33.440Z,31.95
2019-03-03T11:02:16.408Z,23.07
2019-03-03T11:05:02.066Z,18.70
2019-03-03T11:07:35.405Z,15.80
2019-03-03T11:10:22.796Z,19.30
2019-03-03T11:12:56.385Z,20.85
2019-03-03T11:15:38.704Z,23.85
2019-03-03T11:18:22.416Z,16.82
2019-03-03T11:20:58.464Z,22.00
2019-03-03T11:23:46.831Z,20.05
2019-03-03T11:26:24.732Z,26.68
2019-03-03T11:29:05.792Z,21.42
2019-03-03T11:31:50.052Z,19.23
2019-03-03T11:34:38.146Z,14.53
2019-03-03T11:37:28.895Z,15.50
2019-03-03T11:40:19.183Z,19.32
2019-03-03T11:43:11.578Z,13.28
2019-03-03T11:45:54.870Z,17.07
2019-03-03T11:48:39.000Z,32.50
2019-03-03T11:51:28.174Z,23.30
2019-03-03T11:54:01.922Z,15.40
2019-03-03T11:56:42.554Z,13.72
2019-03-03T11:59:15.879Z,14.00
2019-03-03T12:02:07.272Z,16.03
2019-03-03T12:04:42.994Z,16.87
2019-03-03T12:07:25.349Z,28.90
2019-03-03T12:09:59.940Z,20.57
2019-03-03T12:12:33.164Z,24.65
2019-03-03T12:15:26.633Z,21.27
2019-03-03T12:18:07.087Z,24.90
2019-03-03T12:20:42.266Z,19.65
2019-03-03T12:23:17.127Z,29.50
2019-03-03T12:26:01.820Z,20.40
2019-03-03T12:28:41.242Z,22.10
2019-03-03T12:31:24.083Z,24.50
2019-03-03T12:34:03.104Z,17.35
2019-03-03T12:36:46.978Z,18.80
2019-03-03T12:39:20.037Z,27.73
2019-03-03T12:41:53.258Z,23.70
2019-03-03T12:44:32.577Z,20.07
2019-03-03T12:47:09.380Z,23.55
2019-03-03T12:49:49.974Z,21.02
2019-03-03T12:52:40.051Z,17.62
2019-03-03T12:55:18.212Z,14.65
2019-03-03T12:57:52.422Z,23.67
2019-03-03T13:00:45.418Z,16.70
2019-03-03T13:03:22.999Z,14.53
2019-03-03T13:06:11.636Z,13.72
2019-03-03T13:08:48.847Z,15.72
2019-03-03T13:11:26.049Z,19.95
2019-03-03T13:14:04.421Z,13.35
2019-03-03T13:16:43.483Z,21.17
2019-03-03T13:19:26.403Z,18.23
2019-03-03T13:22:06.568Z,20.70
2019-03-03T13:24:54.706Z,18.17
2019-03-03T13:27:34.110Z,17.05
2019-03-03T13:30:30.263Z,13.28
2019-03-03T13:33:20.968Z,15.88
2019-03-03T13:36:13.192Z,17.05
2019-03-03T13:38:51.095Z,21.23
2019-03-03T13:41:26.931Z,15.03
2019-03-03T13:43:58.391Z,21.52
2019-03-03T13:46:29.727Z,17.52
2019-03-03T13:49:04.286Z,19.42
2019-03-03T13:51:36.718Z,15.80
2019-03-03T13:54:08.922Z,21.23
2019-03-03T13:56:41.959Z,15.90
2019-03-03T13:59:22.867Z,20.77
2019-03-03T14:01:55.855Z,18.25
2019-03-03T14:04:28.137Z,17.00
2019-03-03T14:07:02.554Z,16.40
2019-03-03T14:09:35.535Z,19.07
2019-03-03T14:12:06.796Z,26.40
2019-03-03T14:14:45.394Z,28.98
2019-03-03T14:17:17.074Z,28.30
2019-03-03T14:19:48.738Z,20.68
2019-03-03T14:22:21.815Z,16.37
2019-03-03T14:24:54.293Z,19.17
2019-03-03T14:27:28.197Z,21.07
2019-03-03T14:30:00.888Z,16.45
2019-03-03T14:32:32.224Z,15.90
2019-03-03T14:35:03.743Z,18.80
2019-03-03T14:37:34.991Z,17.60
2019-03-03T14:40:13.700Z,10.53
2019-03-03T14:42:45.318Z,15.15
2019-03-03T14:45:21.220Z,14.33
2019-03-03T14:47:52.513Z,13.30
2019-03-03T14:50:24.726Z,13.93
2019-03-03T14:53:02.477Z,18.32
2019-03-03T14:55:38.463Z,17.30
2019-03-03T14:58:16.666Z,16.37
2019-03-03T15:00:51.439Z,18.00
2019-03-03T15:03:22.801Z,18.02
2019-03-03T15:06:00.546Z,19.92
2019-03-03T15:08:31.710Z,16.32
2019-03-03T15:11:03.019Z,23.38
2019-03-03T15:13:42.328Z,18.00
2019-03-03T15:16:15.046Z,13.68
2019-03-03T15:18:51.948Z,18.75
2019-03-03T15:21:25.305Z,12.50
2019-03-03T15:23:57.380Z,15.43
2019-03-03T15:26:29.248Z,19.85
2019-03-03T15:29:02.746Z,21.80
2019-03-03T15:31:37.757Z,16.73
2019-03-03T15:34:29.308Z,20.20
2019-03-03T15:37:01.643Z,18.87
2019-03-03T15:39:36.499Z,17.10
2019-03-03T15:42:07.793Z,17.30
2019-03-03T15:44:40.292Z,20.30
2019-03-03T15:47:13.647Z,27.42
2019-03-03T15:49:46.987Z,22.00
2019-03-03T15:52:20.232Z,27.17
2019-03-03T15:57:23.833Z,29.77
2019-03-03T16:00:07.893Z,23.18
2019-03-03T16:02:39.544Z,22.52
2019-03-03T16:05:12.984Z,24.07
2019-03-03T16:07:46.878Z,20.77
2019-03-03T16:10:23.180Z,24.27
2019-03-03T16:12:54.742Z,19.02
2019-03-03T16:15:26.787Z,21.97
2019-03-03T16:17:59.222Z,29.60
2019-03-03T16:20:30.585Z,25.95
2019-03-03T16:23:02.007Z,40.05
2019-03-03T16:25:33.576Z,47.83
2019-03-03T16:28:05.224Z,54.67
2019-03-03T16:30:36.304Z,42.53
2019-03-03T16:33:20.223Z,45.03
2019-03-03T16:35:47.985Z,50.17
2019-03-03T16:38:20.973Z,49.33
2019-03-03T16:40:53.090Z,47.23
2019-03-03T16:43:24.587Z,38.02
2019-03-03T16:45:56.021Z,38.13
2019-03-03T16:48:27.698Z,33.95
2019-03-03T16:50:59.252Z,39.18
2019-03-03T16:53:30.809Z,41.68
2019-03-03T16:56:02.049Z,30.97
2019-03-03T16:58:35.228Z,36.80
2019-03-03T17:01:06.980Z,31.45
2019-03-03T17:03:42.251Z,31.12
2019-03-03T17:06:14.827Z,32.50
2019-03-03T17:08:48.635Z,35.73
2019-03-03T17:11:23.668Z,40.17
2019-03-03T17:13:57.086Z,37.05
2019-03-03T17:16:28.813Z,39.48
2019-03-03T17:19:01.606Z,42.93
2019-03-03T17:21:34.757Z,40.20
2019-03-03T17:24:09.113Z,44.37
2019-03-03T17:26:41.102Z,45.52
2019-03-03T17:29:12.851Z,46.90
2019-03-03T17:31:45.024Z,45.55
2019-03-03T17:34:27.425Z,45.63
2019-03-03T17:37:04.916Z,43.20
2019-03-03T17:39:36.402Z,49.80
2019-03-03T17:42:07.916Z,50.33
2019-03-03T17:44:39.380Z,53.35
2019-03-03T17:47:12.377Z,52.10
2019-03-03T17:49:46.481Z,51.83
2019-03-03T17:52:17.426Z,63.02
2019-03-03T17:54:51.331Z,54.23
2019-03-03T17:57:24.123Z,55.55
2019-03-03T17:59:55.771Z,54.35
2019-03-03T18:02:28.333Z,57.45
2019-03-03T18:05:00.431Z,48.17
2019-03-03T18:07:33.031Z,43.20
2019-03-03T18:10:08.391Z,43.52
2019-03-03T18:12:40.093Z,50.70
2019-03-03T18:15:16.872Z,38.13
2019-03-03T18:17:50.533Z,42.43
2019-03-03T18:20:22.616Z,32.70
2019-03-03T18:22:55.291Z,42.38
2019-03-03T18:25:28.662Z,42.30
2019-03-03T18:28:00.162Z,41.73
2019-03-03T18:30:32.149Z,35.75
2019-03-03T18:33:04.214Z,40.38
2019-03-03T18:35:36.877Z,43.35
2019-03-03T18:38:10.212Z,38.38
2019-03-03T18:40:42.246Z,52.45
2019-03-03T18:43:14.945Z,45.45
2019-03-03T18:45:46.981Z,47.85
2019-03-03T18:48:23.065Z,42.88
2019-03-03T18:50:55.825Z,41.50
2019-03-03T18:53:27.183Z,43.25
2019-03-03T18:55:58.686Z,40.38
2019-03-03T18:58:32.959Z,35.43
2019-03-03T19:03:37.951Z,36.45
2019-03-03T19:06:09.590Z,41.13
2019-03-03T19:08:41.818Z,36.95
2019-03-03T19:11:16.986Z,32.17
2019-03-03T19:13:49.269Z,35.43
2019-03-03T19:16:23.195Z,28.80
2019-03-03T19:18:56.190Z,30.68
2019-03-03T19:21:30.360Z,28.25
2019-03-03T19:24:03.309Z,25.50
2019-03-03T19:26:37.871Z,31.27
2019-03-03T19:29:12.853Z,32.80
2019-03-03T19:34:49.107Z,30.17
2019-03-03T19:37:21.680Z,28.90
2019-03-03T19:39:53.534Z,31.80
2019-03-03T19:42:25.508Z,28.85
2019-03-03T19:44:58.177Z,27.82
2019-03-03T19:47:30.878Z,28.07
2019-03-03T19:50:13.071Z,31.02
2019-03-03T19:52:46.471Z,31.02
2019-03-03T19:55:18.434Z,33.75
2019-03-03T19:57:50.246Z,29.60
2019-03-03T20:00:35.535Z,28.67
2019-03-03T20:03:04.590Z,30.95
2019-03-03T20:05:40.517Z,30.48
2019-03-03T20:08:13.106Z,26.20
2019-03-03T20:10:44.864Z,31.70
2019-03-03T20:13:17.329Z,30.37
2019-03-03T20:15:49.017Z,31.40
2019-03-03T20:18:22.168Z,28.38
2019-03-03T20:20:53.991Z,30.45
2019-03-03T20:23:25.690Z,34.45
2019-03-03T20:25:58.106Z,30.55
2019-03-03T20:28:32.497Z,27.27
2019-03-03T20:31:07.689Z,28.07
2019-03-03T20:33:41.787Z,24.52
2019-03-03T20:36:16.564Z,29.23
2019-03-03T20:38:48.011Z,26.55
2019-03-03T20:41:21.429Z,32.17
2019-03-03T20:44:00.139Z,28.60
2019-03-03T20:46:33.166Z,28.32
2019-03-03T20:49:06.009Z,30.27
2019-03-03T20:51:54.094Z,34.20
2019-03-03T20:54:27.753Z,31.60
2019-03-03T20:57:18.440Z,31.97
2019-03-03T20:59:49.838Z,34.48
2019-03-03T21:02:23.550Z,31.42
2019-03-03T21:04:56.812Z,35.73
2019-03-03T21:07:28.268Z,36.88
2019-03-03T21:09:59.819Z,33.75
2019-03-03T21:12:33.428Z,31.52
2019-03-03T21:15:12.500Z,35.88
2019-03-03T21:17:44.929Z,39.92
2019-03-03T21:20:22.762Z,36.30
2019-03-03T21:22:58.498Z,37.25
2019-03-03T21:25:30.256Z,37.23
2019-03-03T21:28:02.099Z,36.33
2019-03-03T21:30:34.777Z,39.98
2019-03-03T21:33:07.380Z,33.92
2019-03-03T21:35:39.528Z,35.28
2019-03-03T21:38:13.132Z,36.65
2019-03-03T21:40:44.581Z,34.10
2019-03-03T21:43:15.993Z,36.15
2019-03-03T21:45:53.626Z,31.15
2019-03-03T21:48:25.659Z,34.45
2019-03-03T21:51:00.642Z,42.73
2019-03-03T21:53:32.129Z,35.43
2019-03-03T21:56:03.949Z,31.07
2019-03-03T21:58:35.788Z,39.60
2019-03-03T22:01:07.889Z,37.23
2019-03-03T22:03:39.533Z,28.80
2019-03-03T22:06:11.128Z,40.23
2019-03-03T22:08:42.731Z,34.67
2019-03-03T22:11:14.363Z,33.13
2019-03-03T22:13:45.685Z,35.38
2019-03-03T22:16:18.532Z,38.95
2019-03-03T22:18:50.090Z,34.65
2019-03-03T22:21:21.574Z,36.68
2019-03-03T22:23:53.722Z,31.95
2019-03-03T22:26:25.456Z,31.30
2019-03-03T22:28:57.587Z,33.95
2019-03-03T22:31:29.281Z,33.73
2019-03-03T22:34:01.373Z,34.03
2019-03-03T22:36:33.117Z,31.55
2019-03-03T22:39:08.353Z,35.60
2019-03-03T22:41:41.654Z,37.00
2019-03-03T22:44:13.108Z,32.10
2019-03-03T22:46:45.984Z,33.00
2019-03-03T22:49:17.544Z,34.60
2019-03-03T22:51:50.526Z,33.10
2019-03-03T22:54:21.893Z,29.55
2019-03-03T22:56:54.563Z,35.13
2019-03-03T22:59:28.101Z,30.30
2019-03-03T23:02:04.426Z,33.33
2019-03-03T23:04:54.206Z,34.33
2019-03-03T23:07:39.043Z,33.05
2019-03-03T23:10:28.671Z,31.90
2019-03-03T23:13:06.346Z,31.15
2019-03-03T23:15:52.169Z,29.23
2019-03-03T23:18:33.092Z,34.25
2019-03-03T23:21:37.411Z,30.62
2019-03-03T23:24:27.010Z,40.45
2019-03-03T23:26:58.298Z,33.58
2019-03-03T23:29:29.693Z,33.30
2019-03-03T23:32:09.157Z,38.53
2019-03-03T23:34:40.601Z,33.48
2019-03-03T23:37:11.914Z,35.45
2019-03-03T23:39:43.260Z,35.13
2019-03-03T23:42:14.765Z,32.53
2019-03-03T23:44:46.763Z,34.15
2019-03-03T23:47:18.663Z,34.20
2019-03-03T23:49:50.184Z,35.48
2019-03-03T23:52:21.794Z,34.13
2019-03-03T23:54:54.058Z,35.13
2019-03-03T23:57:25.693Z,40.17
2019-03-03T23:59:57.205Z,30.90
